createdAt,value
2022-12-12T17:05:27.866Z,72.86
2022-12-12T17:08:15.301Z,73.41
2022-12-12T17:11:10.215Z,73.70
2022-12-12T17:13:56.077Z,73.44
2022-12-12T17:16:41.607Z,72.26
2022-12-12T17:19:27.007Z,72.65
2022-12-12T17:22:12.295Z,72.21
2022-12-12T17:24:57.544Z,71.95
2022-12-12T17:27:43.112Z,71.41
2022-12-12T17:30:28.306Z,70.15
2022-12-12T17:33:19.799Z,69.84
2022-12-12T17:36:06.730Z,70.40
2022-12-12T17:38:51.917Z,69.22
2022-12-12T17:41:36.994Z,67.71
2022-12-12T17:44:23.674Z,67.90
2022-12-12T17:47:08.898Z,67.71
2022-12-12T17:49:54.232Z,67.06
2022-12-12T17:52:39.470Z,67.18
2022-12-12T17:55:53.976Z,67.89
2022-12-12T17:58:41.211Z,66.35
2022-12-12T18:01:29.309Z,66.09
2022-12-12T18:04:15.137Z,66.19
2022-12-12T18:07:00.326Z,66.40
2022-12-12T18:09:46.052Z,66.16
2022-12-12T18:12:31.770Z,66.07
2022-12-12T18:15:17.013Z,66.77
2022-12-12T18:18:02.069Z,66.19
2022-12-12T18:20:47.848Z,66.22
2022-12-12T18:23:33.929Z,66.09
2022-12-12T18:26:22.246Z,65.74
2022-12-12T18:29:08.503Z,65.96
2022-12-12T18:31:54.349Z,66.04
2022-12-12T18:34:40.375Z,66.04
2022-12-12T18:37:25.563Z,66.90
2022-12-12T18:40:11.180Z,66.93
2022-12-12T18:42:56.562Z,66.61
2022-12-12T18:45:41.778Z,66.45
2022-12-12T18:48:27.310Z,65.91
2022-12-12T18:51:16.501Z,66.72
2022-12-12T18:54:05.360Z,67.45
2022-12-12T18:56:53.506Z,67.26
2022-12-12T18:59:39.335Z,67.00
2022-12-12T19:02:24.526Z,67.07
2022-12-12T19:05:13.243Z,67.14
2022-12-12T19:07:58.709Z,66.72
2022-12-12T19:10:46.326Z,66.58
2022-12-12T19:13:31.531Z,66.72
2022-12-12T19:16:20.956Z,66.55
2022-12-12T19:19:06.382Z,66.57
2022-12-12T19:21:52.395Z,67.24
2022-12-12T19:24:40.905Z,67.47
2022-12-12T19:27:28.306Z,67.95
2022-12-12T19:30:15.672Z,67.99
2022-12-12T19:33:01.016Z,68.49
2022-12-12T19:35:46.235Z,68.51
2022-12-12T19:38:31.785Z,66.78
2022-12-12T19:41:19.913Z,67.60
2022-12-12T19:44:08.793Z,67.53
2022-12-12T19:46:53.957Z,68.02
2022-12-12T19:49:39.569Z,66.72
2022-12-12T19:52:24.960Z,67.35
2022-12-12T19:55:10.319Z,66.16
2022-12-12T19:57:55.865Z,65.36
2022-12-12T20:00:41.018Z,65.85
2022-12-12T20:03:26.358Z,66.27
2022-12-12T20:06:11.660Z,66.25
2022-12-12T20:09:00.420Z,66.29
2022-12-12T20:11:46.625Z,66.47
2022-12-12T20:14:33.583Z,67.20
2022-12-12T20:17:18.822Z,67.25
2022-12-12T20:20:04.947Z,65.91
2022-12-12T20:22:50.271Z,66.51
2022-12-12T20:25:40.697Z,67.62
2022-12-12T20:28:26.110Z,68.36
2022-12-12T20:31:14.532Z,68.96
2022-12-12T20:34:00.478Z,69.72
2022-12-12T20:36:46.410Z,70.50
2022-12-12T20:39:31.725Z,72.00
2022-12-12T20:42:16.830Z,72.75
2022-12-12T20:45:03.124Z,73.87
2022-12-12T20:47:48.500Z,74.21
2022-12-12T20:50:33.672Z,74.93
2022-12-12T20:53:19.902Z,75.04
2022-12-12T20:56:11.050Z,75.61
2022-12-12T20:58:59.870Z,75.80
2022-12-12T21:01:47.077Z,76.10
2022-12-12T21:04:32.855Z,75.24
2022-12-12T21:07:18.134Z,75.15
2022-12-12T21:10:04.053Z,75.86
2022-12-12T21:12:49.376Z,75.84
2022-12-12T21:15:35.658Z,75.84
2022-12-12T21:18:21.069Z,75.25
2022-12-12T21:21:10.684Z,74.78
2022-12-12T21:23:56.205Z,74.78
2022-12-12T21:26:41.907Z,74.82
2022-12-12T21:29:27.119Z,73.62
2022-12-12T21:32:12.247Z,73.28
2022-12-12T21:34:57.733Z,73.82
2022-12-12T21:37:43.118Z,72.44
2022-12-12T21:40:28.833Z,71.81
2022-12-12T21:43:14.311Z,70.75
2022-12-12T21:46:04.638Z,69.97
2022-12-12T21:49:10.501Z,70.27
2022-12-12T21:51:58.165Z,70.05
2022-12-12T21:54:43.393Z,68.70
2022-12-12T21:57:29.083Z,67.89
2022-12-12T22:00:16.116Z,67.17
2022-12-12T22:03:01.677Z,67.19
2022-12-12T22:05:47.078Z,66.37
2022-12-12T22:08:32.494Z,65.88
2022-12-12T22:11:23.868Z,66.41
2022-12-12T22:14:24.596Z,65.93
2022-12-12T22:17:09.625Z,66.78
2022-12-12T22:19:57.347Z,67.14
2022-12-12T22:22:42.787Z,66.71
2022-12-12T22:25:29.062Z,65.43
2022-12-12T22:28:14.583Z,65.29
2022-12-12T22:31:04.755Z,66.12
2022-12-12T22:33:59.349Z,66.63
2022-12-12T22:36:46.055Z,66.04
2022-12-12T22:39:31.229Z,66.15
2022-12-12T22:42:16.671Z,67.11
2022-12-12T22:45:02.570Z,67.69
2022-12-12T22:47:47.942Z,67.31
2022-12-12T22:50:33.419Z,66.94
2022-12-12T22:53:18.747Z,67.77
2022-12-12T22:56:04.109Z,67.29
2022-12-12T22:58:49.529Z,67.07
2022-12-12T23:01:34.831Z,67.48
2022-12-12T23:04:20.267Z,68.08
2022-12-12T23:07:05.528Z,68.20
2022-12-12T23:09:53.615Z,67.24
2022-12-12T23:12:39.850Z,67.67
2022-12-12T23:15:25.314Z,67.46
2022-12-12T23:18:10.642Z,67.86
2022-12-12T23:20:56.135Z,67.77
2022-12-12T23:23:41.878Z,67.22
2022-12-12T23:26:30.073Z,67.64
2022-12-12T23:29:16.811Z,67.42
2022-12-12T23:32:03.000Z,66.74
2022-12-12T23:34:49.136Z,66.44
2022-12-12T23:37:34.365Z,66.47
2022-12-12T23:40:19.566Z,66.89
2022-12-12T23:43:04.534Z,67.13
2022-12-12T23:45:50.081Z,67.08
2022-12-12T23:48:35.326Z,67.12
2022-12-12T23:51:20.681Z,66.59
2022-12-12T23:54:09.913Z,66.72
2022-12-12T23:57:23.855Z,66.53
